createdAt,value
2023-03-24T00:00:01.903Z,43.50
2023-03-24T00:00:25.022Z,43.36
2023-03-24T00:00:47.632Z,43.48
2023-03-24T00:01:10.519Z,43.42
2023-03-24T00:01:32.275Z,43.74
2023-03-24T00:01:54.362Z,43.34
2023-03-24T00:02:17.739Z,43.38
2023-03-24T00:02:42.568Z,43.65
2023-03-24T00:03:04.427Z,43.46
2023-03-24T00:03:29.512Z,43.75
2023-03-24T00:03:52.310Z,43.73
2023-03-24T00:04:15.514Z,43.55
2023-03-24T00:04:39.058Z,43.58
2023-03-24T00:05:01.247Z,43.85
2023-03-24T00:05:24.485Z,43.75
2023-03-24T00:05:46.294Z,43.65
2023-03-24T00:06:13.696Z,43.63
2023-03-24T00:06:36.790Z,43.69
2023-03-24T00:07:01.773Z,43.95
2023-03-24T00:07:25.545Z,43.96
2023-03-24T00:07:54.151Z,43.81
2023-03-24T00:08:17.847Z,43.81
2023-03-24T00:08:43.958Z,43.83
2023-03-24T00:09:06.168Z,43.66
2023-03-24T00:09:28.837Z,43.72
2023-03-24T00:09:50.812Z,43.61
2023-03-24T00:10:17.968Z,43.84
2023-03-24T00:10:40.408Z,43.94
2023-03-24T00:11:04.257Z,43.78
2023-03-24T00:11:26.361Z,43.84
2023-03-24T00:11:49.124Z,43.68
2023-03-24T00:12:13.934Z,43.99
2023-03-24T00:12:38.768Z,43.64
2023-03-24T00:13:01.188Z,43.74
2023-03-24T00:13:24.526Z,43.57
2023-03-24T00:13:47.265Z,43.69
2023-03-24T00:14:12.160Z,43.73
2023-03-24T00:14:33.987Z,43.77
2023-03-24T00:14:56.692Z,43.95
2023-03-24T00:15:21.262Z,43.76
2023-03-24T00:15:43.083Z,44.00
2023-03-24T00:16:06.359Z,43.68
2023-03-24T00:16:29.528Z,43.99
2023-03-24T00:16:52.794Z,44.03
2023-03-24T00:17:17.407Z,43.57
2023-03-24T00:17:39.570Z,43.58
2023-03-24T00:18:02.418Z,43.61
2023-03-24T00:18:25.965Z,43.85
2023-03-24T00:18:52.770Z,43.80
2023-03-24T00:19:15.090Z,43.79
2023-03-24T00:19:38.292Z,43.96
2023-03-24T00:19:59.975Z,43.99
2023-03-24T00:20:23.058Z,43.59
2023-03-24T00:20:45.963Z,44.11
2023-03-24T00:21:11.564Z,43.88
2023-03-24T00:21:33.505Z,43.78
2023-03-24T00:21:55.990Z,43.84
2023-03-24T00:22:17.770Z,44.02
2023-03-24T00:22:42.430Z,44.12
2023-03-24T00:23:05.079Z,44.12
2023-03-24T00:23:27.902Z,44.08
2023-03-24T00:23:49.634Z,43.80
2023-03-24T00:24:12.751Z,43.73
2023-03-24T00:24:35.642Z,43.61
2023-03-24T00:24:58.323Z,43.99
2023-03-24T00:25:23.306Z,44.03
2023-03-24T00:25:45.410Z,44.25
2023-03-24T00:26:12.230Z,44.28
2023-03-24T00:26:38.366Z,43.89
2023-03-24T00:27:03.460Z,43.99
2023-03-24T00:27:30.162Z,43.88
2023-03-24T00:27:53.265Z,44.04
2023-03-24T00:28:16.229Z,43.83
2023-03-24T00:28:39.113Z,44.09
2023-03-24T00:29:02.009Z,43.94
2023-03-24T00:29:24.730Z,43.88
2023-03-24T00:29:48.029Z,43.82
2023-03-24T00:30:11.667Z,43.81
2023-03-24T00:30:34.899Z,43.81
2023-03-24T00:30:56.622Z,43.69
2023-03-24T00:31:19.470Z,43.98
2023-03-24T00:31:43.212Z,43.56
2023-03-24T00:32:06.358Z,43.80
2023-03-24T00:32:30.266Z,43.92
2023-03-24T00:32:53.528Z,43.78
2023-03-24T00:33:15.606Z,43.86
2023-03-24T00:33:37.700Z,43.92
2023-03-24T00:34:02.715Z,43.71
2023-03-24T00:34:24.490Z,43.81
2023-03-24T00:34:46.215Z,43.74
2023-03-24T00:35:09.874Z,43.96
2023-03-24T00:35:34.250Z,43.57
2023-03-24T00:35:57.759Z,43.67
2023-03-24T00:36:21.253Z,43.89
2023-03-24T00:36:43.040Z,43.80
2023-03-24T00:37:06.588Z,43.68
2023-03-24T00:37:28.338Z,43.54
2023-03-24T00:37:52.074Z,43.81
2023-03-24T00:38:15.264Z,43.61
2023-03-24T00:38:38.153Z,43.55
2023-03-24T00:39:01.053Z,43.55
2023-03-24T00:39:22.886Z,43.73
2023-03-24T00:39:44.882Z,43.82
2023-03-24T00:40:12.399Z,44.00
2023-03-24T00:40:34.165Z,43.93
2023-03-24T00:40:55.948Z,44.00
2023-03-24T00:41:20.089Z,44.07
2023-03-24T00:41:45.106Z,44.05
2023-03-24T00:42:07.247Z,44.06
2023-03-24T00:42:29.286Z,44.23
2023-03-24T00:42:51.207Z,43.86
2023-03-24T00:43:14.330Z,44.11
2023-03-24T00:43:36.679Z,43.98
2023-03-24T00:44:00.290Z,43.85
2023-03-24T00:44:22.958Z,44.06
2023-03-24T00:44:44.937Z,43.80
2023-03-24T00:45:09.068Z,44.09
2023-03-24T00:45:34.439Z,44.06
2023-03-24T00:46:02.424Z,44.09
2023-03-24T00:46:28.507Z,43.97
2023-03-24T00:46:56.379Z,43.89
2023-03-24T00:47:26.183Z,44.14
2023-03-24T00:47:49.979Z,43.97
2023-03-24T00:48:12.853Z,43.88
2023-03-24T00:48:34.978Z,43.68
2023-03-24T00:49:02.652Z,43.98
2023-03-24T00:49:42.362Z,43.96
2023-03-24T00:50:06.698Z,43.93
2023-03-24T00:50:28.683Z,43.98
2023-03-24T00:50:52.839Z,43.74
2023-03-24T00:51:14.589Z,43.79
2023-03-24T00:51:38.190Z,43.94
2023-03-24T00:52:01.792Z,44.01
2023-03-24T00:52:26.191Z,43.88
2023-03-24T00:52:49.108Z,44.05
2023-03-24T00:53:15.834Z,43.90
2023-03-24T00:53:43.900Z,43.83
2023-03-24T00:54:06.726Z,44.13
2023-03-24T00:54:32.038Z,44.24
2023-03-24T00:54:55.199Z,43.84
2023-03-24T00:55:18.094Z,43.84
2023-03-24T00:55:40.586Z,43.82
2023-03-24T00:56:02.274Z,44.23
2023-03-24T00:56:26.650Z,44.11
2023-03-24T00:56:49.943Z,44.06
2023-03-24T00:57:13.019Z,44.10
2023-03-24T00:57:34.940Z,44.09
2023-03-24T00:57:57.029Z,43.78
2023-03-24T00:58:20.264Z,43.99
2023-03-24T00:58:42.119Z,43.66
2023-03-24T00:59:04.228Z,44.00
2023-03-24T00:59:29.420Z,43.80
2023-03-24T00:59:54.543Z,44.17
2023-03-24T01:00:19.668Z,43.96
2023-03-24T01:00:42.368Z,43.83
2023-03-24T01:01:06.585Z,43.92
2023-03-24T01:01:33.109Z,44.17
2023-03-24T01:01:54.848Z,44.24
2023-03-24T01:02:19.176Z,44.37
2023-03-24T01:02:41.462Z,44.47
2023-03-24T01:03:05.423Z,44.13
2023-03-24T01:03:27.496Z,44.15
2023-03-24T01:03:50.963Z,44.59
2023-03-24T01:04:14.095Z,44.26
2023-03-24T01:04:37.518Z,44.32
2023-03-24T01:05:02.108Z,44.47
2023-03-24T01:05:25.902Z,44.48
2023-03-24T01:05:48.478Z,44.17
2023-03-24T01:06:11.484Z,44.47
2023-03-24T01:06:36.537Z,44.21
2023-03-24T01:06:58.549Z,44.06
2023-03-24T01:07:20.537Z,44.08
2023-03-24T01:07:43.225Z,44.02
2023-03-24T01:08:07.386Z,43.96
2023-03-24T01:08:31.318Z,43.95
2023-03-24T01:08:53.947Z,44.24
2023-03-24T01:09:15.728Z,44.17
2023-03-24T01:09:38.483Z,44.22
2023-03-24T01:10:00.463Z,44.49
2023-03-24T01:10:26.248Z,44.42
2023-03-24T01:10:53.065Z,44.30
2023-03-24T01:11:15.256Z,44.68
2023-03-24T01:11:40.236Z,44.70
2023-03-24T01:12:05.016Z,44.51
2023-03-24T01:12:28.993Z,44.36
2023-03-24T01:12:50.680Z,44.61
2023-03-24T01:13:12.424Z,44.46
2023-03-24T01:13:35.220Z,44.59
2023-03-24T01:13:57.038Z,44.38
2023-03-24T01:14:19.610Z,44.30
2023-03-24T01:14:41.687Z,44.24
2023-03-24T01:15:09.437Z,44.49
2023-03-24T01:15:33.445Z,44.32
2023-03-24T01:15:56.646Z,44.23
2023-03-24T01:16:18.757Z,44.34
2023-03-24T01:16:42.813Z,44.36
2023-03-24T01:17:06.359Z,43.99
2023-03-24T01:17:29.505Z,43.95
2023-03-24T01:17:53.321Z,44.08
2023-03-24T01:18:16.851Z,43.91
2023-03-24T01:18:40.716Z,43.70
2023-03-24T01:19:02.505Z,43.75
2023-03-24T01:19:25.458Z,43.71
2023-03-24T01:19:47.268Z,43.58
2023-03-24T01:20:12.042Z,43.90
2023-03-24T01:20:34.022Z,43.98
2023-03-24T01:20:55.771Z,43.85
2023-03-24T01:21:18.203Z,44.17
2023-03-24T01:21:42.078Z,43.99
2023-03-24T01:22:04.295Z,44.03
2023-03-24T01:22:29.695Z,44.30
2023-03-24T01:22:51.834Z,43.84
2023-03-24T01:23:16.604Z,44.24
2023-03-24T01:23:41.921Z,44.43
2023-03-24T01:24:05.096Z,44.30
2023-03-24T01:24:27.916Z,44.26
2023-03-24T01:24:51.106Z,44.36
2023-03-24T01:25:16.083Z,44.30
2023-03-24T01:25:38.010Z,44.30
2023-03-24T01:26:00.217Z,44.36
2023-03-24T01:26:23.249Z,44.23
2023-03-24T01:26:44.972Z,43.79
2023-03-24T01:27:06.759Z,44.02
2023-03-24T01:27:28.716Z,43.91
2023-03-24T01:27:52.252Z,44.39
2023-03-24T01:28:16.712Z,44.30
2023-03-24T01:28:41.015Z,44.15
2023-03-24T01:29:03.202Z,44.14
2023-03-24T01:29:25.921Z,43.99
2023-03-24T01:29:47.650Z,44.00
2023-03-24T01:30:13.068Z,43.99
2023-03-24T01:30:34.886Z,44.23
2023-03-24T01:31:53.336Z,44.44
2023-03-24T01:32:15.536Z,44.15
2023-03-24T01:32:37.474Z,44.27
2023-03-24T01:32:59.596Z,44.56
2023-03-24T01:33:22.193Z,44.35
2023-03-24T01:33:44.940Z,44.47
2023-03-24T01:34:07.904Z,44.63
2023-03-24T01:34:29.688Z,44.74
2023-03-24T01:34:51.571Z,44.51
2023-03-24T01:35:14.584Z,44.63
2023-03-24T01:35:36.960Z,44.83
2023-03-24T01:35:59.191Z,44.79
2023-03-24T01:36:21.457Z,44.77
2023-03-24T01:36:44.190Z,44.83
2023-03-24T01:37:05.988Z,45.09
2023-03-24T01:37:27.747Z,44.75
2023-03-24T01:37:49.851Z,44.84
2023-03-24T01:38:13.424Z,44.64
2023-03-24T01:38:36.709Z,44.67
2023-03-24T01:39:01.383Z,44.95
2023-03-24T01:39:23.558Z,44.68
2023-03-24T01:39:45.561Z,44.80
2023-03-24T01:40:09.533Z,45.13
2023-03-24T01:40:36.160Z,44.91
2023-03-24T01:40:58.512Z,44.62
2023-03-24T01:41:20.678Z,44.75
2023-03-24T01:41:43.507Z,44.92
2023-03-24T01:42:05.388Z,44.97
2023-03-24T01:42:28.410Z,44.81
2023-03-24T01:42:51.214Z,44.91
2023-03-24T01:43:22.538Z,45.09
2023-03-24T01:43:44.626Z,45.17
2023-03-24T01:44:27.824Z,44.95
2023-03-24T01:44:52.475Z,44.65
2023-03-24T01:45:51.801Z,44.87
2023-03-24T01:46:17.870Z,44.94
2023-03-24T01:46:39.830Z,45.08
2023-03-24T01:47:06.151Z,44.90
2023-03-24T01:47:28.056Z,45.10
2023-03-24T01:47:50.034Z,45.06
2023-03-24T01:48:16.930Z,44.68
2023-03-24T01:48:43.904Z,45.20
2023-03-24T01:49:07.673Z,45.35
2023-03-24T01:49:35.758Z,45.15
2023-03-24T01:50:00.520Z,45.00
2023-03-24T01:50:22.327Z,45.29
2023-03-24T01:50:48.673Z,45.29
2023-03-24T01:51:22.364Z,45.02
2023-03-24T01:51:47.433Z,45.11
2023-03-24T01:52:13.145Z,44.94
2023-03-24T01:52:36.545Z,45.20
2023-03-24T01:53:00.019Z,44.85
2023-03-24T01:53:23.652Z,45.25
2023-03-24T01:53:50.179Z,45.26
2023-03-24T01:54:19.055Z,45.14
2023-03-24T01:54:45.258Z,45.03
2023-03-24T01:55:16.073Z,45.15
2023-03-24T01:55:38.587Z,45.12
2023-03-24T01:56:06.085Z,44.95
2023-03-24T01:56:35.477Z,44.77
2023-03-24T01:57:03.444Z,45.00
2023-03-24T01:57:30.750Z,44.83
2023-03-24T01:57:56.691Z,45.09
2023-03-24T01:58:24.073Z,44.89
2023-03-24T01:59:21.421Z,45.19
2023-03-24T02:00:08.285Z,44.93
2023-03-24T02:00:38.085Z,44.88
2023-03-24T02:01:21.927Z,44.99
2023-03-24T02:02:03.000Z,45.13
2023-03-24T02:02:36.558Z,44.85
2023-03-24T02:03:06.669Z,45.57
2023-03-24T02:03:38.913Z,45.43
2023-03-24T02:04:05.059Z,45.32
2023-03-24T02:04:28.326Z,45.35
2023-03-24T02:05:09.977Z,45.05
2023-03-24T02:05:38.867Z,45.37
2023-03-24T02:06:02.542Z,45.38
2023-03-24T02:06:26.127Z,45.21
2023-03-24T02:06:52.078Z,45.40
2023-03-24T02:07:18.540Z,45.66
2023-03-24T02:07:45.575Z,45.48
2023-03-24T02:08:15.345Z,45.46
2023-03-24T02:08:42.754Z,45.53
2023-03-24T02:09:04.483Z,45.35
2023-03-24T02:09:29.920Z,45.51
2023-03-24T02:09:54.193Z,45.34
2023-03-24T02:10:19.042Z,45.34
2023-03-24T02:10:44.210Z,45.54
2023-03-24T02:11:06.839Z,45.49
2023-03-24T02:11:39.674Z,45.71
2023-03-24T02:12:04.875Z,45.45
2023-03-24T02:12:28.869Z,45.09
2023-03-24T02:12:51.815Z,45.40
2023-03-24T02:13:15.375Z,45.34
2023-03-24T02:13:38.290Z,45.26
2023-03-24T02:14:01.761Z,45.21
2023-03-24T02:14:24.736Z,45.09
2023-03-24T02:14:47.709Z,45.33
2023-03-24T02:15:12.168Z,45.07
2023-03-24T02:15:38.874Z,45.19
2023-03-24T02:16:14.049Z,44.94
2023-03-24T02:16:59.053Z,45.38
2023-03-24T02:17:35.828Z,45.33
2023-03-24T02:18:08.070Z,45.12
2023-03-24T02:18:45.080Z,45.39
2023-03-24T02:19:46.924Z,45.06
2023-03-24T02:21:01.316Z,45.13
2023-03-24T02:22:03.198Z,44.96
2023-03-24T02:22:47.997Z,44.71
2023-03-24T02:23:42.430Z,45.10
2023-03-24T02:24:30.962Z,45.30
2023-03-24T02:25:38.542Z,44.73
2023-03-24T02:26:42.922Z,45.17
2023-03-24T02:27:13.337Z,45.29
2023-03-24T02:27:55.295Z,45.28
2023-03-24T02:28:30.164Z,45.41
2023-03-24T02:29:03.466Z,45.41
2023-03-24T02:29:52.640Z,45.44
2023-03-24T02:30:33.776Z,45.37
2023-03-24T02:31:12.986Z,45.10
2023-03-24T02:31:52.550Z,45.19
2023-03-24T02:32:50.100Z,45.13
2023-03-24T02:33:38.242Z,45.33
2023-03-24T02:34:37.075Z,45.22
2023-03-24T02:35:30.651Z,44.85
2023-03-24T02:36:36.749Z,45.05
2023-03-24T02:37:35.559Z,45.33
2023-03-24T02:38:35.024Z,45.07
2023-03-24T02:39:30.273Z,45.84
2023-03-24T02:40:20.168Z,45.16
2023-03-24T02:40:47.785Z,45.06
2023-03-24T02:41:17.062Z,45.23
2023-03-24T02:41:46.625Z,45.40
2023-03-24T02:42:22.034Z,45.53
2023-03-24T02:42:57.669Z,45.58
2023-03-24T02:43:31.431Z,45.21
2023-03-24T02:44:01.319Z,45.29
2023-03-24T02:44:31.543Z,45.41
2023-03-24T02:45:06.361Z,45.28
2023-03-24T02:45:35.887Z,45.54
2023-03-24T02:46:13.844Z,45.40
2023-03-24T02:46:43.996Z,45.27
2023-03-24T02:47:16.114Z,45.56
2023-03-24T02:47:46.026Z,45.61
2023-03-24T02:48:21.917Z,45.17
2023-03-24T02:48:58.880Z,45.22
2023-03-24T02:49:30.644Z,45.10
2023-03-24T02:49:59.507Z,45.04
2023-03-24T02:50:28.532Z,45.22
2023-03-24T02:50:57.239Z,45.43
2023-03-24T02:51:25.993Z,45.16
2023-03-24T02:51:54.665Z,45.15
2023-03-24T02:52:22.239Z,45.17
2023-03-24T02:52:50.422Z,44.92
2023-03-24T02:53:18.889Z,45.04
2023-03-24T02:54:08.316Z,45.24
2023-03-24T02:54:40.645Z,45.17
2023-03-24T02:55:09.993Z,45.45
2023-03-24T02:55:37.129Z,45.26
2023-03-24T02:56:08.361Z,45.14
2023-03-24T02:56:38.669Z,44.96
2023-03-24T02:57:19.607Z,44.78
2023-03-24T02:58:05.483Z,44.84
2023-03-24T02:58:37.844Z,44.72
2023-03-24T02:59:02.953Z,44.59
2023-03-24T02:59:34.151Z,44.38
2023-03-24T03:00:04.871Z,44.33
2023-03-24T03:01:03.463Z,44.13
2023-03-24T03:01:54.433Z,44.55
2023-03-24T03:02:33.601Z,44.42
2023-03-24T03:03:03.051Z,44.39
2023-03-24T03:03:34.612Z,44.38
2023-03-24T03:04:07.058Z,44.37
2023-03-24T03:04:33.245Z,44.48
2023-03-24T03:05:00.958Z,44.18
2023-03-24T03:05:27.299Z,44.19
2023-03-24T03:05:59.730Z,44.00
2023-03-24T03:06:25.867Z,44.09
2023-03-24T03:06:52.400Z,44.33
2023-03-24T03:07:16.782Z,44.05
2023-03-24T03:07:41.270Z,44.58
2023-03-24T03:08:08.307Z,44.54
2023-03-24T03:08:33.773Z,44.54
2023-03-24T03:08:57.823Z,44.46
2023-03-24T03:09:24.257Z,44.04
2023-03-24T03:09:51.890Z,44.55
2023-03-24T03:10:18.169Z,44.42
2023-03-24T03:10:43.481Z,44.40
2023-03-24T03:11:11.055Z,44.51
2023-03-24T03:11:33.994Z,44.94
2023-03-24T03:11:58.652Z,44.77
2023-03-24T03:12:23.367Z,44.80
2023-03-24T03:12:51.429Z,44.76
2023-03-24T03:13:20.536Z,44.46
2023-03-24T03:13:48.796Z,44.65
2023-03-24T03:14:14.477Z,44.40
2023-03-24T03:14:42.517Z,44.40
2023-03-24T03:15:09.848Z,44.28
2023-03-24T03:15:37.221Z,44.50
2023-03-24T03:16:08.749Z,44.52
2023-03-24T03:16:38.428Z,44.28
2023-03-24T03:17:05.353Z,44.48
2023-03-24T03:17:33.267Z,44.51
2023-03-24T03:18:02.782Z,44.46
2023-03-24T03:18:30.341Z,44.81
2023-03-24T03:18:57.131Z,44.42
2023-03-24T03:19:22.347Z,44.67
2023-03-24T03:19:50.208Z,44.74
2023-03-24T03:20:16.526Z,44.45
2023-03-24T03:20:42.897Z,44.57
2023-03-24T03:21:10.957Z,44.38
2023-03-24T03:21:39.270Z,44.57
2023-03-24T03:22:06.438Z,44.64
2023-03-24T03:22:35.635Z,44.57
2023-03-24T03:23:02.496Z,44.82
2023-03-24T03:23:29.159Z,44.91
2023-03-24T03:23:56.444Z,44.89
2023-03-24T03:24:26.473Z,44.74
2023-03-24T03:24:53.059Z,45.10
2023-03-24T03:25:20.971Z,45.37
2023-03-24T03:25:50.359Z,45.24
2023-03-24T03:26:16.429Z,45.40
2023-03-24T03:26:38.619Z,45.50
2023-03-24T03:27:05.838Z,45.30
2023-03-24T03:27:32.312Z,45.66
2023-03-24T03:27:58.584Z,45.95
2023-03-24T03:28:23.725Z,46.14
2023-03-24T03:28:51.877Z,45.87
2023-03-24T03:29:18.554Z,45.81
2023-03-24T03:29:44.589Z,45.82
2023-03-24T03:30:13.468Z,45.80
2023-03-24T03:30:38.812Z,45.67
2023-03-24T03:31:06.344Z,45.47
2023-03-24T03:31:32.507Z,45.47
2023-03-24T03:32:00.938Z,45.49
2023-03-24T03:32:28.075Z,46.01
2023-03-24T03:32:55.287Z,45.57
2023-03-24T03:33:25.011Z,45.76
2023-03-24T03:33:53.010Z,45.71
2023-03-24T03:34:21.887Z,45.62
2023-03-24T03:34:49.028Z,45.34
2023-03-24T03:35:15.011Z,45.47
2023-03-24T03:35:44.380Z,45.37
2023-03-24T03:36:12.121Z,45.04
2023-03-24T03:36:39.600Z,45.31
2023-03-24T03:37:07.316Z,45.03
2023-03-24T03:37:37.704Z,45.01
2023-03-24T03:38:10.120Z,45.22
2023-03-24T03:38:39.753Z,45.32
2023-03-24T03:39:10.349Z,45.31
2023-03-24T03:39:36.982Z,45.27
2023-03-24T03:40:09.675Z,45.54
2023-03-24T03:40:39.146Z,45.74
2023-03-24T03:41:08.747Z,45.61
2023-03-24T03:41:31.905Z,45.34
2023-03-24T03:41:54.102Z,45.71
2023-03-24T03:42:17.028Z,45.44
2023-03-24T03:42:39.457Z,45.49
2023-03-24T03:43:04.369Z,45.52
2023-03-24T03:43:27.854Z,45.56
2023-03-24T03:43:51.372Z,45.40
2023-03-24T03:44:13.564Z,45.61
2023-03-24T03:44:35.554Z,45.72
2023-03-24T03:44:57.474Z,45.71
2023-03-24T03:45:19.852Z,45.37
2023-03-24T03:45:43.092Z,45.51
2023-03-24T03:46:06.381Z,45.17
2023-03-24T03:46:31.417Z,45.15
2023-03-24T03:46:53.477Z,45.14
2023-03-24T03:47:24.812Z,45.32
2023-03-24T03:47:48.378Z,45.23
2023-03-24T03:48:10.878Z,45.15
2023-03-24T03:48:33.949Z,45.38
2023-03-24T03:48:56.761Z,45.47
2023-03-24T03:49:18.938Z,45.19
2023-03-24T03:49:42.168Z,45.18
2023-03-24T03:50:05.804Z,45.18
2023-03-24T03:50:28.739Z,45.18
2023-03-24T03:51:06.364Z,45.25
2023-03-24T03:51:35.576Z,45.37
2023-03-24T03:51:57.730Z,45.15
2023-03-24T03:52:20.792Z,45.51
2023-03-24T03:52:44.792Z,45.43
2023-03-24T03:53:07.428Z,45.16
2023-03-24T03:53:36.960Z,45.32
2023-03-24T03:54:02.267Z,45.14
2023-03-24T03:54:28.784Z,45.58
2023-03-24T03:54:51.688Z,45.11
2023-03-24T03:55:14.832Z,45.00
2023-03-24T03:55:38.209Z,45.04
2023-03-24T03:56:01.313Z,45.30
2023-03-24T03:56:27.929Z,45.21
2023-03-24T03:57:01.728Z,45.21
2023-03-24T03:57:35.556Z,45.04
2023-03-24T03:58:04.496Z,45.38
2023-03-24T03:58:32.711Z,45.29
2023-03-24T03:58:55.690Z,45.32
2023-03-24T03:59:26.166Z,45.64
2023-03-24T03:59:48.131Z,45.57
2023-03-24T04:00:16.512Z,45.57
2023-03-24T04:00:50.985Z,45.63
2023-03-24T04:01:37.037Z,45.45
2023-03-24T04:02:34.026Z,45.12
2023-03-24T04:03:18.425Z,45.16
2023-03-24T04:04:09.493Z,45.07
2023-03-24T04:05:21.363Z,45.22
2023-03-24T04:06:01.748Z,45.17
2023-03-24T04:06:36.104Z,45.25
2023-03-24T04:07:13.536Z,45.35
2023-03-24T04:07:58.091Z,45.48
2023-03-24T04:08:49.590Z,45.12
2023-03-24T04:09:32.654Z,44.67
2023-03-24T04:10:05.774Z,44.96
2023-03-24T04:10:35.340Z,44.61
2023-03-24T04:11:37.472Z,44.80
2023-03-24T04:12:27.995Z,44.66
2023-03-24T04:13:28.027Z,44.50
2023-03-24T04:14:26.209Z,44.88
2023-03-24T04:15:21.967Z,45.12
2023-03-24T04:16:05.009Z,44.86
2023-03-24T04:17:01.519Z,44.93
2023-03-24T04:17:46.063Z,45.18
2023-03-24T04:18:35.646Z,45.06
2023-03-24T04:19:15.970Z,44.78
2023-03-24T04:19:55.742Z,44.89
2023-03-24T04:20:22.673Z,44.99
2023-03-24T04:20:49.915Z,44.99
2023-03-24T04:21:33.778Z,44.62
2023-03-24T04:22:13.005Z,44.55
2023-03-24T04:22:47.460Z,44.90
2023-03-24T04:23:26.419Z,44.66
2023-03-24T04:24:00.141Z,45.13
2023-03-24T04:24:34.757Z,44.78
2023-03-24T04:25:04.165Z,44.85
2023-03-24T04:25:36.218Z,44.68
2023-03-24T04:26:10.304Z,44.81
2023-03-24T04:26:42.230Z,44.84
2023-03-24T04:27:11.222Z,44.69
2023-03-24T04:27:41.562Z,44.55
2023-03-24T04:28:14.383Z,44.29
2023-03-24T04:28:47.925Z,44.49
2023-03-24T04:29:18.536Z,44.38
2023-03-24T04:29:53.014Z,44.62
2023-03-24T04:30:23.762Z,44.57
2023-03-24T04:30:51.387Z,44.15
2023-03-24T04:31:23.507Z,44.28
2023-03-24T04:31:51.461Z,44.03
2023-03-24T04:32:21.006Z,43.82
2023-03-24T04:32:48.875Z,43.94
2023-03-24T04:33:22.403Z,43.78
2023-03-24T04:33:51.901Z,44.09
2023-03-24T04:34:20.674Z,44.43
2023-03-24T04:34:50.685Z,44.14
2023-03-24T04:35:36.628Z,44.57
2023-03-24T04:36:17.946Z,44.45
2023-03-24T04:37:05.376Z,44.32
2023-03-24T04:37:38.189Z,44.39
2023-03-24T04:38:11.944Z,44.75
2023-03-24T04:38:38.204Z,44.63
2023-03-24T04:39:18.260Z,44.61
2023-03-24T04:39:49.623Z,44.33
2023-03-24T04:40:16.424Z,44.62
2023-03-24T04:40:42.357Z,44.96
2023-03-24T04:41:06.866Z,44.65
2023-03-24T04:41:31.928Z,44.69
2023-03-24T04:42:10.118Z,44.64
2023-03-24T04:42:37.185Z,44.96
2023-03-24T04:43:04.062Z,44.81
2023-03-24T04:43:29.140Z,44.99
2023-03-24T04:43:53.256Z,45.00
2023-03-24T04:44:17.564Z,45.01
2023-03-24T04:44:57.640Z,44.79
2023-03-24T04:45:36.407Z,44.67
2023-03-24T04:46:03.926Z,45.18
2023-03-24T04:46:44.675Z,45.43
2023-03-24T04:47:12.411Z,45.18
2023-03-24T04:47:46.455Z,45.44
2023-03-24T04:48:22.499Z,46.16
2023-03-24T04:49:03.893Z,46.20
2023-03-24T04:49:30.808Z,46.61
2023-03-24T04:50:00.888Z,46.49
2023-03-24T04:50:30.771Z,46.35
2023-03-24T04:50:57.360Z,46.26
2023-03-24T04:51:21.295Z,46.14
2023-03-24T04:51:51.776Z,46.30
2023-03-24T04:52:18.266Z,46.59
2023-03-24T04:52:41.190Z,46.92
2023-03-24T04:53:04.307Z,47.03
2023-03-24T04:53:27.067Z,46.74
2023-03-24T04:53:50.328Z,46.69
2023-03-24T04:54:12.171Z,47.11
2023-03-24T04:54:39.005Z,47.54
2023-03-24T04:55:03.141Z,47.80
2023-03-24T04:55:50.040Z,47.97
2023-03-24T04:56:30.298Z,48.03
2023-03-24T04:57:02.931Z,47.95
2023-03-24T04:57:27.995Z,48.27
2023-03-24T04:58:00.716Z,48.35
2023-03-24T04:58:23.530Z,48.76
2023-03-24T04:58:45.190Z,48.51
2023-03-24T04:59:08.283Z,48.43
2023-03-24T04:59:34.487Z,47.71
2023-03-24T04:59:59.290Z,47.91
2023-03-24T05:00:21.912Z,48.28
2023-03-24T05:00:45.060Z,48.37
2023-03-24T05:01:09.247Z,48.29
2023-03-24T05:01:39.474Z,48.45
2023-03-24T05:02:21.955Z,49.42
2023-03-24T05:02:54.313Z,49.24
2023-03-24T05:03:21.057Z,48.31
2023-03-24T05:03:45.880Z,48.27
2023-03-24T05:04:09.675Z,47.94
2023-03-24T05:04:31.634Z,47.83
2023-03-24T05:05:00.410Z,48.16
2023-03-24T05:05:30.196Z,48.49
2023-03-24T05:05:53.980Z,48.93
2023-03-24T05:06:17.452Z,48.65
2023-03-24T05:06:41.502Z,48.85
2023-03-24T05:07:03.831Z,48.66
2023-03-24T05:07:27.116Z,48.37
2023-03-24T05:07:54.742Z,48.49
2023-03-24T05:08:18.866Z,48.05
2023-03-24T05:08:41.347Z,48.92
2023-03-24T05:09:04.823Z,49.59
2023-03-24T05:09:27.057Z,49.61
2023-03-24T05:09:50.463Z,49.24
2023-03-24T05:10:12.135Z,49.65
2023-03-24T05:10:46.483Z,49.70
2023-03-24T05:11:08.371Z,49.91
2023-03-24T05:11:31.497Z,50.00
2023-03-24T05:12:01.413Z,49.71
2023-03-24T05:12:26.798Z,49.40
2023-03-24T05:13:15.267Z,48.95
2023-03-24T05:13:48.132Z,48.97
2023-03-24T05:14:10.226Z,49.84
2023-03-24T05:14:32.060Z,50.20
2023-03-24T05:14:55.503Z,50.02
2023-03-24T05:15:17.736Z,49.64
2023-03-24T05:15:42.710Z,49.61
2023-03-24T05:16:28.021Z,49.53
2023-03-24T05:16:53.862Z,49.56
2023-03-24T05:17:17.701Z,49.82
2023-03-24T05:17:39.652Z,49.48
2023-03-24T05:18:01.815Z,49.23
2023-03-24T05:18:23.591Z,49.10
2023-03-24T05:18:50.938Z,48.95
2023-03-24T05:19:13.061Z,48.68
2023-03-24T05:19:36.399Z,48.56
2023-03-24T05:19:58.333Z,48.49
2023-03-24T05:20:21.584Z,48.72
2023-03-24T05:20:46.413Z,49.13
2023-03-24T05:21:13.518Z,48.77
2023-03-24T05:21:36.945Z,48.88
2023-03-24T05:22:01.081Z,48.70
2023-03-24T05:22:28.772Z,49.25
2023-03-24T05:22:52.274Z,49.10
2023-03-24T05:23:15.019Z,49.25
2023-03-24T05:23:39.563Z,49.26
2023-03-24T05:24:02.415Z,49.12
2023-03-24T05:24:24.158Z,48.73
2023-03-24T05:24:47.506Z,48.69
2023-03-24T05:25:10.836Z,48.77
2023-03-24T05:25:33.085Z,49.16
2023-03-24T05:25:56.202Z,48.93
2023-03-24T05:26:20.473Z,49.09
2023-03-24T05:27:14.647Z,48.77
2023-03-24T05:27:36.610Z,48.47
2023-03-24T05:28:11.349Z,48.35
2023-03-24T05:28:33.478Z,48.41
2023-03-24T05:28:55.176Z,48.60
2023-03-24T05:29:16.952Z,48.22
2023-03-24T05:29:40.824Z,48.44
2023-03-24T05:30:05.350Z,48.63
2023-03-24T05:30:29.168Z,48.55
2023-03-24T05:31:01.550Z,48.45
2023-03-24T05:31:38.694Z,48.56
2023-03-24T05:32:05.229Z,48.74
2023-03-24T05:32:29.014Z,48.89
2023-03-24T05:32:50.968Z,48.66
2023-03-24T05:33:13.502Z,48.44
2023-03-24T05:33:35.421Z,48.62
2023-03-24T05:33:58.830Z,48.96
2023-03-24T05:34:22.168Z,48.65
2023-03-24T05:34:53.388Z,48.34
2023-03-24T05:35:25.123Z,48.41
2023-03-24T05:35:47.209Z,48.26
2023-03-24T05:36:10.445Z,48.28
2023-03-24T05:36:33.288Z,48.15
2023-03-24T05:36:56.714Z,48.20
2023-03-24T05:37:18.788Z,48.10
2023-03-24T05:37:44.602Z,48.31
2023-03-24T05:38:06.399Z,48.13
2023-03-24T05:38:31.252Z,48.38
2023-03-24T05:38:53.079Z,48.42
2023-03-24T05:39:16.572Z,48.48
2023-03-24T05:39:50.262Z,48.60
2023-03-24T05:40:40.314Z,48.62
2023-03-24T05:41:12.074Z,48.34
2023-03-24T05:41:36.992Z,48.55
2023-03-24T05:41:58.861Z,48.58
2023-03-24T05:42:21.413Z,48.30
2023-03-24T05:42:44.175Z,48.10
2023-03-24T05:43:09.853Z,48.32
2023-03-24T05:43:35.598Z,47.77
2023-03-24T05:44:06.017Z,47.96
2023-03-24T05:44:28.615Z,47.90
2023-03-24T05:45:00.668Z,48.32
2023-03-24T05:45:22.998Z,48.39
2023-03-24T05:45:44.990Z,48.45
2023-03-24T05:46:18.931Z,48.16
2023-03-24T05:46:42.917Z,48.00
2023-03-24T05:47:04.846Z,47.85
2023-03-24T05:47:27.265Z,47.74
2023-03-24T05:47:51.341Z,47.54
2023-03-24T05:48:19.425Z,47.33
2023-03-24T05:48:57.726Z,47.67
2023-03-24T05:49:26.470Z,47.15
2023-03-24T05:49:50.395Z,46.90
2023-03-24T05:50:12.124Z,47.18
2023-03-24T05:50:34.411Z,47.36
2023-03-24T05:50:57.905Z,47.55
2023-03-24T05:51:20.444Z,47.44
2023-03-24T05:51:49.422Z,47.53
2023-03-24T05:52:14.790Z,47.64
2023-03-24T05:52:37.960Z,47.57
2023-03-24T05:53:16.377Z,46.50
2023-03-24T05:53:56.705Z,46.63
2023-03-24T05:54:33.996Z,46.45
2023-03-24T05:55:10.944Z,46.50
2023-03-24T05:55:35.142Z,46.42
2023-03-24T05:56:11.931Z,46.25
2023-03-24T05:57:07.999Z,46.79
2023-03-24T05:57:38.953Z,46.16
2023-03-24T05:58:22.716Z,46.09
2023-03-24T05:58:46.869Z,45.20
2023-03-24T05:59:11.494Z,44.96
2023-03-24T05:59:53.584Z,45.86
2023-03-24T06:00:35.684Z,45.36
2023-03-24T06:01:07.558Z,45.77
2023-03-24T06:01:30.880Z,45.25
2023-03-24T06:02:05.466Z,45.11